Hovedside
METAR-TAF:

METAR-TAF

Lufthavner :

Visby lufthavn

Visby, Gotland, Sverige

breddegrad: 57-40N, lengdegrad: 018-21E, høyde over havet: 51 m

Gjeldene værobservasjon

Denne rapporten ble laget for 37 minutter siden, klokken 04:20 UTC
Vind 13 kt fra Sørvest
Temperatur 17°C
Luftfuktighet 88%
Trykk 1004 hPa
Sikt 10 km eller mer
Få skyer i en høyde av 1000 ft
Brutte skyer i en høyde av 7000 ft

METAR: ESSV 210420Z 22013KT 9999 FEW010 BKN070 17/15 Q1004

Tid: 06:57 (04:57 UTC)

Varsel

Denne rapporten ble laget for 2 timer og 27 minutter siden, klokken 02:30 UTC
Varsel gyldig fra 21. klokken 03 UTC til 21. klokken 12 UTC
Vind 8 kt fra Sørvest
Sikt 10 km eller mer
Få skyer i en høyde av 2500 ft
Blir
fra 21. klokken 05 UTC til 21. klokken 07 UTC
Vind 18 kt fra Sørvest

TAF: ESSV 210230Z 2103/2112 22008KT 9999 FEW025 BECMG 2105/2107 23018KT

Værobservasjoner og værvarsel for over 4000 flyplasser (METAR- og TAF-rapporter).

Tilgjengelige stasjoner er representert av de røde og gule prikkene på kartet.

Hold musepekeren over prikken for å se navnet på stasjonen.

Klikk så for å se værobservasjoner og -varsler.

For å forandre kartet kan du klikke på den grønne knappen med svart kryss for å zoome inn, på den grønne knappen med strek for å zoome ut, eller på de grønne pilene for å se tilstøtende kart.


METAR-TAF: